KROC/ROC METAR and TAF weather

Enter ICAO airport designator
Station Type Date Time Source
KROC METAR 2018/12/10 07:54 UTC NOAA

KROC 100754Z 29006KT 9SM OVC027 M02/M05 A3017 RMK AO2 SLP226 T10171050


Station Type Date Time Source
KROC Decoded METAR 2018/12/10 07:54 UTC NOAA

GREATER ROCHESTER INTERNATIONAL , NY, United States (KROC) 43-07N 077-41W 178M
Dec 10, 2018 - 02:54 AM EST / 2018.12.10 0754 UTC
Wind: from the WNW (290 degrees) at 7 MPH (6 KT):0
Visibility: 9 mile(s):0
Sky conditions: overcast
Temperature: 28.9 F (-1.7 C)
Windchill: 21 F (-6 C):1
Dew Point: 23.0 F (-5.0 C)
Relative Humidity: 78%
Pressure (altimeter): 30.17 in. Hg (1021 hPa)
ob: KROC 100754Z 29006KT 9SM OVC027 M02/M05 A3017 RMK AO2 SLP226 T10171050
cycle: 8

Station Type Date Time Source
KROC TAF 2018/12/10 06:39 UTC NOAA

TAF KROC 100536Z 1006/1106 27005KT P6SM -SN OVC025
FM100900 VRB03KT P6SM -SN OVC025
TEMPO 1009/1013 BKN015
FM101600 36004KT P6SM BKN025
FM110000 VRB04KT P6SM BKN025


Example: see airport list